Terminal Aerodrome Forecast
Issued by NWS

Home | Current Version | Previous Version | Text Only | Print | Product List | Glossary On
Versions: 1 2 3 4 5 6 7 8 9 10 11 12 13
858
FTUS42 KMLB 252321
TAFTIX
TAF
KTIX 252321Z 2600/2624 13011KT P6SM FEW050 SCT100
     FM260100 18005KT P6SM FEW030
     FM261400 16006KT P6SM SCT035
     FM261800 12010KT P6SM VCTS SCT035CB BKN060=

USA.gov is the U.S. government's official web portal to all federal, state and local government web resources and services.